Main page
METAR-TAF:

Airports :

Budapest, Hungary

Budapest Ferenc Liszt International Airport

latitude: 47-26N, longitude: 019-16E, elevation: 151 m

Current weather observation

The report was made 37 minutes ago, at 16:30 UTC
Wind 10 kt from the South/Southeast
Temperature 7°C
Humidity 76%
Pressure 1016 hPa
Visibility 10 km or more
no clouds below 1500 m and no cumulonimbus

METAR: LHBP 071630Z 15010KT CAVOK 07/03 Q1016 NOSIG

Time: 18:07 (17:07 UTC)

Forecast

The report was made 6 hours and 7 minutes ago, at 11:00 UTC
Forecast valid from 07 at 12 UTC to 08 at 12 UTC
Wind 14 kt from the South/Southeast
Visibility 10 km or more
no clouds below 1500 m and no cumulonimbus
Becoming
from 07 at 16 UTC to 07 at 18 UTC
Wind 7 kt from the Southeast
Temporary
from 08 at 03 UTC to 08 at 12 UTC
Scattered clouds at a height of 2500 ft
Broken clouds at a height of 4000 ft
light rain, light rain showers

TAF: LHBP 071100Z 0712/0812 15014KT CAVOK BECMG 0716/0718 13007KT TEMPO 0803/0812 -RA -SHRA SCT025 BKN040

METAR-TAF

Weather observations and forecasts of more than 4000 airports (METAR and TAF reports).

The available stations are represented by yellow and red dots on the map.

Hover mouse over dot to see the name of the station.

Then click to see weather observations and forecasts.

To change the map : click on the green buttons with a black cross to zoom in, on the green button with a dash to zoom out, or on the green arrows for adjacent maps.


METAR-TAF: